sensor_id;sensor_type;location;lat;lon;timestamp;P1;durP1;ratioP1;P2;durP2;ratioP2
51451;SDS011;37521;52.020;-1.740;2023-04-15T00:00:39;5.68;;;3.95;;
51451;SDS011;37521;52.020;-1.740;2023-04-15T00:03:07;4.45;;;3.25;;
51451;SDS011;37521;52.020;-1.740;2023-04-15T00:05:36;7.50;;;4.07;;
51451;SDS011;37521;52.020;-1.740;2023-04-15T00:08:04;8.07;;;3.90;;
51451;SDS011;37521;52.020;-1.740;2023-04-15T00:10:33;7.47;;;3.50;;
51451;SDS011;37521;52.020;-1.740;2023-04-15T00:13:01;6.55;;;3.15;;
51451;SDS011;37521;52.020;-1.740;2023-04-15T00:15:31;5.88;;;3.53;;
51451;SDS011;37521;52.020;-1.740;2023-04-15T00:17:59;6.28;;;3.47;;
51451;SDS011;37521;52.020;-1.740;2023-04-15T00:20:27;5.63;;;3.90;;
51451;SDS011;37521;52.020;-1.740;2023-04-15T00:22:55;6.78;;;4.10;;
51451;SDS011;37521;52.020;-1.740;2023-04-15T00:25:24;4.53;;;3.55;;
51451;SDS011;37521;52.020;-1.740;2023-04-15T00:27:53;3.90;;;2.95;;
51451;SDS011;37521;52.020;-1.740;2023-04-15T00:30:21;8.68;;;3.80;;
51451;SDS011;37521;52.020;-1.740;2023-04-15T00:32:52;7.18;;;3.20;;
51451;SDS011;37521;52.020;-1.740;2023-04-15T00:35:21;5.82;;;3.83;;
51451;SDS011;37521;52.020;-1.740;2023-04-15T00:37:51;5.50;;;3.17;;
51451;SDS011;37521;52.020;-1.740;2023-04-15T00:40:20;6.90;;;4.18;;
51451;SDS011;37521;52.020;-1.740;2023-04-15T00:42:50;6.82;;;4.40;;
51451;SDS011;37521;52.020;-1.740;2023-04-15T00:45:18;8.00;;;4.15;;
51451;SDS011;37521;52.020;-1.740;2023-04-15T00:47:47;4.65;;;3.08;;
51451;SDS011;37521;52.020;-1.740;2023-04-15T00:50:16;5.45;;;3.55;;
51451;SDS011;37521;52.020;-1.740;2023-04-15T00:52:44;7.38;;;4.03;;
51451;SDS011;37521;52.020;-1.740;2023-04-15T00:55:13;7.15;;;3.72;;
51451;SDS011;37521;52.020;-1.740;2023-04-15T00:57:42;7.97;;;4.05;;
51451;SDS011;37521;52.020;-1.740;2023-04-15T01:00:11;4.95;;;3.03;;
51451;SDS011;37521;52.020;-1.740;2023-04-15T01:02:40;5.68;;;3.30;;
51451;SDS011;37521;52.020;-1.740;2023-04-15T01:05:08;5.70;;;3.20;;
51451;SDS011;37521;52.020;-1.740;2023-04-15T01:07:38;6.70;;;3.88;;
51451;SDS011;37521;52.020;-1.740;2023-04-15T01:10:06;7.55;;;3.75;;
51451;SDS011;37521;52.020;-1.740;2023-04-15T01:12:35;8.23;;;4.63;;
51451;SDS011;37521;52.020;-1.740;2023-04-15T01:15:06;6.47;;;4.00;;
51451;SDS011;37521;52.020;-1.740;2023-04-15T01:17:36;8.02;;;4.35;;
51451;SDS011;37521;52.020;-1.740;2023-04-15T01:20:06;8.20;;;4.57;;
51451;SDS011;37521;52.020;-1.740;2023-04-15T01:22:39;8.80;;;4.85;;
51451;SDS011;37521;52.020;-1.740;2023-04-15T01:25:09;7.60;;;3.45;;
51451;SDS011;37521;52.020;-1.740;2023-04-15T01:27:40;4.70;;;3.28;;
51451;SDS011;37521;52.020;-1.740;2023-04-15T01:30:09;6.97;;;3.33;;
51451;SDS011;37521;52.020;-1.740;2023-04-15T01:32:37;5.95;;;3.55;;
51451;SDS011;37521;52.020;-1.740;2023-04-15T01:35:05;7.82;;;3.55;;
51451;SDS011;37521;52.020;-1.740;2023-04-15T01:37:34;8.48;;;4.18;;
51451;SDS011;37521;52.020;-1.740;2023-04-15T01:40:03;8.13;;;4.18;;
51451;SDS011;37521;52.020;-1.740;2023-04-15T01:42:34;7.32;;;4.03;;
51451;SDS011;37521;52.020;-1.740;2023-04-15T01:45:04;7.90;;;4.85;;
51451;SDS011;37521;52.020;-1.740;2023-04-15T01:47:36;8.40;;;4.50;;
51451;SDS011;37521;52.020;-1.740;2023-04-15T01:50:05;7.70;;;4.82;;
51451;SDS011;37521;52.020;-1.740;2023-04-15T01:52:34;6.13;;;4.38;;
51451;SDS011;37521;52.020;-1.740;2023-04-15T01:55:02;8.20;;;4.47;;
51451;SDS011;37521;52.020;-1.740;2023-04-15T01:57:31;8.15;;;5.00;;
51451;SDS011;37521;52.020;-1.740;2023-04-15T01:59:59;9.57;;;5.72;;
51451;SDS011;37521;52.020;-1.740;2023-04-15T02:02:39;9.73;;;5.10;;
51451;SDS011;37521;52.020;-1.740;2023-04-15T02:05:08;8.18;;;4.68;;
51451;SDS011;37521;52.020;-1.740;2023-04-15T02:07:36;9.18;;;4.50;;
51451;SDS011;37521;52.020;-1.740;2023-04-15T02:10:05;8.88;;;5.32;;
51451;SDS011;37521;52.020;-1.740;2023-04-15T02:12:34;11.10;;;5.45;;
51451;SDS011;37521;52.020;-1.740;2023-04-15T02:15:02;10.80;;;5.20;;
51451;SDS011;37521;52.020;-1.740;2023-04-15T02:17:32;9.05;;;4.90;;
51451;SDS011;37521;52.020;-1.740;2023-04-15T02:20:03;9.73;;;5.88;;
51451;SDS011;37521;52.020;-1.740;2023-04-15T02:22:32;13.18;;;5.43;;
51451;SDS011;37521;52.020;-1.740;2023-04-15T02:25:00;9.93;;;6.30;;
51451;SDS011;37521;52.020;-1.740;2023-04-15T02:27:30;11.88;;;5.78;;
51451;SDS011;37521;52.020;-1.740;2023-04-15T02:29:59;13.38;;;6.43;;
51451;SDS011;37521;52.020;-1.740;2023-04-15T02:32:27;9.65;;;5.53;;
51451;SDS011;37521;52.020;-1.740;2023-04-15T02:34:55;11.07;;;5.95;;
51451;SDS011;37521;52.020;-1.740;2023-04-15T02:37:25;12.93;;;6.70;;
51451;SDS011;37521;52.020;-1.740;2023-04-15T02:39:54;11.57;;;5.78;;
51451;SDS011;37521;52.020;-1.740;2023-04-15T02:42:22;11.93;;;5.55;;
51451;SDS011;37521;52.020;-1.740;2023-04-15T02:44:53;10.65;;;5.47;;
51451;SDS011;37521;52.020;-1.740;2023-04-15T02:47:27;11.43;;;6.05;;
51451;SDS011;37521;52.020;-1.740;2023-04-15T02:49:55;16.02;;;6.88;;
51451;SDS011;37521;52.020;-1.740;2023-04-15T02:52:28;13.25;;;6.50;;
51451;SDS011;37521;52.020;-1.740;2023-04-15T02:54:57;11.48;;;5.28;;
51451;SDS011;37521;52.020;-1.740;2023-04-15T02:57:26;12.07;;;5.72;;
51451;SDS011;37521;52.020;-1.740;2023-04-15T02:59:58;15.68;;;6.18;;
51451;SDS011;37521;52.020;-1.740;2023-04-15T03:02:28;13.55;;;6.38;;
51451;SDS011;37521;52.020;-1.740;2023-04-15T03:05:01;15.15;;;6.57;;
51451;SDS011;37521;52.020;-1.740;2023-04-15T03:07:31;15.77;;;7.05;;
51451;SDS011;37521;52.020;-1.740;2023-04-15T03:10:00;11.50;;;5.95;;
51451;SDS011;37521;52.020;-1.740;2023-04-15T03:12:29;12.70;;;6.57;;
51451;SDS011;37521;52.020;-1.740;2023-04-15T03:14:57;12.07;;;5.93;;
51451;SDS011;37521;52.020;-1.740;2023-04-15T03:17:33;11.50;;;6.05;;
51451;SDS011;37521;52.020;-1.740;2023-04-15T03:20:02;10.60;;;5.93;;
51451;SDS011;37521;52.020;-1.740;2023-04-15T03:22:33;12.80;;;5.65;;
51451;SDS011;37521;52.020;-1.740;2023-04-15T03:25:02;15.43;;;6.82;;
51451;SDS011;37521;52.020;-1.740;2023-04-15T03:27:31;13.63;;;6.10;;
51451;SDS011;37521;52.020;-1.740;2023-04-15T03:30:02;12.43;;;5.93;;
51451;SDS011;37521;52.020;-1.740;2023-04-15T03:32:32;10.38;;;4.75;;
51451;SDS011;37521;52.020;-1.740;2023-04-15T03:35:00;12.50;;;5.95;;
51451;SDS011;37521;52.020;-1.740;2023-04-15T03:37:28;13.98;;;6.20;;
51451;SDS011;37521;52.020;-1.740;2023-04-15T03:39:57;9.82;;;4.20;;
51451;SDS011;37521;52.020;-1.740;2023-04-15T03:42:26;13.68;;;6.63;;
51451;SDS011;37521;52.020;-1.740;2023-04-15T03:44:54;10.35;;;5.47;;
51451;SDS011;37521;52.020;-1.740;2023-04-15T03:47:22;13.23;;;6.07;;
51451;SDS011;37521;52.020;-1.740;2023-04-15T03:49:50;13.35;;;6.13;;
51451;SDS011;37521;52.020;-1.740;2023-04-15T03:52:18;17.00;;;6.80;;
51451;SDS011;37521;52.020;-1.740;2023-04-15T03:54:46;10.57;;;6.13;;
51451;SDS011;37521;52.020;-1.740;2023-04-15T03:57:16;13.18;;;5.65;;
51451;SDS011;37521;52.020;-1.740;2023-04-15T03:59:44;11.20;;;6.68;;
51451;SDS011;37521;52.020;-1.740;2023-04-15T04:02:12;12.75;;;6.15;;
51451;SDS011;37521;52.020;-1.740;2023-04-15T04:04:40;15.40;;;6.68;;
51451;SDS011;37521;52.020;-1.740;2023-04-15T04:07:13;16.77;;;6.10;;
51451;SDS011;37521;52.020;-1.740;2023-04-15T04:09:42;12.10;;;6.22;;
51451;SDS011;37521;52.020;-1.740;2023-04-15T04:12:12;13.10;;;5.28;;
51451;SDS011;37521;52.020;-1.740;2023-04-15T04:14:42;11.68;;;5.95;;
51451;SDS011;37521;52.020;-1.740;2023-04-15T04:17:10;13.50;;;6.15;;
51451;SDS011;37521;52.020;-1.740;2023-04-15T04:19:38;15.50;;;6.28;;
51451;SDS011;37521;52.020;-1.740;2023-04-15T04:22:07;13.55;;;6.40;;
51451;SDS011;37521;52.020;-1.740;2023-04-15T04:24:35;12.25;;;6.03;;
51451;SDS011;37521;52.020;-1.740;2023-04-15T04:27:03;13.70;;;6.15;;
51451;SDS011;37521;52.020;-1.740;2023-04-15T04:29:31;11.55;;;5.53;;
51451;SDS011;37521;52.020;-1.740;2023-04-15T04:32:00;14.43;;;7.07;;
51451;SDS011;37521;52.020;-1.740;2023-04-15T04:34:29;13.65;;;6.10;;
51451;SDS011;37521;52.020;-1.740;2023-04-15T04:36:58;15.50;;;6.53;;
51451;SDS011;37521;52.020;-1.740;2023-04-15T04:39:26;15.13;;;7.40;;
51451;SDS011;37521;52.020;-1.740;2023-04-15T04:41:54;15.32;;;7.65;;
51451;SDS011;37521;52.020;-1.740;2023-04-15T04:44:23;12.70;;;6.45;;
51451;SDS011;37521;52.020;-1.740;2023-04-15T04:46:51;15.90;;;6.95;;
51451;SDS011;37521;52.020;-1.740;2023-04-15T04:49:20;13.90;;;6.85;;
51451;SDS011;37521;52.020;-1.740;2023-04-15T04:51:48;17.33;;;7.10;;
51451;SDS011;37521;52.020;-1.740;2023-04-15T04:54:17;12.10;;;6.45;;
51451;SDS011;37521;52.020;-1.740;2023-04-15T04:56:45;14.15;;;6.63;;
51451;SDS011;37521;52.020;-1.740;2023-04-15T04:59:13;12.60;;;6.25;;
51451;SDS011;37521;52.020;-1.740;2023-04-15T05:01:42;11.38;;;5.90;;
51451;SDS011;37521;52.020;-1.740;2023-04-15T05:04:10;11.77;;;5.75;;
51451;SDS011;37521;52.020;-1.740;2023-04-15T05:06:40;12.18;;;6.00;;
51451;SDS011;37521;52.020;-1.740;2023-04-15T05:09:08;13.98;;;6.38;;
51451;SDS011;37521;52.020;-1.740;2023-04-15T05:11:36;12.13;;;5.57;;
51451;SDS011;37521;52.020;-1.740;2023-04-15T05:14:04;11.25;;;5.88;;
51451;SDS011;37521;52.020;-1.740;2023-04-15T05:16:33;13.50;;;6.18;;
51451;SDS011;37521;52.020;-1.740;2023-04-15T05:19:01;13.85;;;7.13;;
51451;SDS011;37521;52.020;-1.740;2023-04-15T05:21:29;16.20;;;6.45;;
51451;SDS011;37521;52.020;-1.740;2023-04-15T05:23:59;12.48;;;6.45;;
51451;SDS011;37521;52.020;-1.740;2023-04-15T05:26:27;12.90;;;6.32;;
51451;SDS011;37521;52.020;-1.740;2023-04-15T05:28:55;11.50;;;6.10;;
51451;SDS011;37521;52.020;-1.740;2023-04-15T05:31:24;12.50;;;6.32;;
51451;SDS011;37521;52.020;-1.740;2023-04-15T05:33:52;13.27;;;5.47;;
51451;SDS011;37521;52.020;-1.740;2023-04-15T05:36:20;10.20;;;4.80;;
51451;SDS011;37521;52.020;-1.740;2023-04-15T05:38:48;8.75;;;5.25;;
51451;SDS011;37521;52.020;-1.740;2023-04-15T05:41:19;13.32;;;5.97;;
51451;SDS011;37521;52.020;-1.740;2023-04-15T05:43:47;9.77;;;5.32;;
51451;SDS011;37521;52.020;-1.740;2023-04-15T05:46:15;9.90;;;5.20;;
51451;SDS011;37521;52.020;-1.740;2023-04-15T05:48:43;10.60;;;5.55;;
51451;SDS011;37521;52.020;-1.740;2023-04-15T05:51:12;8.73;;;4.90;;
51451;SDS011;37521;52.020;-1.740;2023-04-15T05:53:40;14.05;;;5.47;;
51451;SDS011;37521;52.020;-1.740;2023-04-15T05:56:08;10.80;;;5.35;;
51451;SDS011;37521;52.020;-1.740;2023-04-15T05:58:37;8.52;;;4.90;;
51451;SDS011;37521;52.020;-1.740;2023-04-15T06:01:05;10.23;;;5.50;;
51451;SDS011;37521;52.020;-1.740;2023-04-15T06:03:34;13.68;;;5.15;;
51451;SDS011;37521;52.020;-1.740;2023-04-15T06:06:02;8.82;;;5.22;;
51451;SDS011;37521;52.020;-1.740;2023-04-15T06:08:30;12.48;;;6.22;;
51451;SDS011;37521;52.020;-1.740;2023-04-15T06:10:58;11.85;;;5.03;;
51451;SDS011;37521;52.020;-1.740;2023-04-15T06:13:27;11.77;;;5.32;;
51451;SDS011;37521;52.020;-1.740;2023-04-15T06:15:57;11.00;;;5.10;;
51451;SDS011;37521;52.020;-1.740;2023-04-15T06:18:25;12.10;;;5.75;;
51451;SDS011;37521;52.020;-1.740;2023-04-15T06:20:53;9.73;;;4.93;;
51451;SDS011;37521;52.020;-1.740;2023-04-15T06:23:21;13.32;;;5.40;;
51451;SDS011;37521;52.020;-1.740;2023-04-15T06:25:52;9.82;;;5.05;;
51451;SDS011;37521;52.020;-1.740;2023-04-15T06:28:20;12.80;;;5.40;;
51451;SDS011;37521;52.020;-1.740;2023-04-15T06:30:48;14.43;;;5.88;;
51451;SDS011;37521;52.020;-1.740;2023-04-15T06:33:18;10.27;;;5.50;;
51451;SDS011;37521;52.020;-1.740;2023-04-15T06:35:46;11.40;;;5.85;;
51451;SDS011;37521;52.020;-1.740;2023-04-15T06:38:15;14.38;;;5.90;;
51451;SDS011;37521;52.020;-1.740;2023-04-15T06:40:43;10.15;;;5.68;;
51451;SDS011;37521;52.020;-1.740;2023-04-15T06:43:11;11.57;;;5.65;;
51451;SDS011;37521;52.020;-1.740;2023-04-15T06:45:39;11.52;;;5.63;;
51451;SDS011;37521;52.020;-1.740;2023-04-15T06:48:07;8.45;;;5.38;;
51451;SDS011;37521;52.020;-1.740;2023-04-15T06:50:37;11.95;;;5.40;;
51451;SDS011;37521;52.020;-1.740;2023-04-15T06:53:05;10.70;;;5.22;;
51451;SDS011;37521;52.020;-1.740;2023-04-15T06:55:33;9.63;;;4.97;;
51451;SDS011;37521;52.020;-1.740;2023-04-15T06:58:01;11.77;;;5.68;;
51451;SDS011;37521;52.020;-1.740;2023-04-15T07:00:29;7.88;;;4.65;;
51451;SDS011;37521;52.020;-1.740;2023-04-15T07:02:59;10.60;;;5.45;;
51451;SDS011;37521;52.020;-1.740;2023-04-15T07:05:29;11.20;;;5.38;;
51451;SDS011;37521;52.020;-1.740;2023-04-15T07:07:59;11.05;;;5.95;;
51451;SDS011;37521;52.020;-1.740;2023-04-15T07:10:27;13.75;;;5.18;;
51451;SDS011;37521;52.020;-1.740;2023-04-15T07:12:55;10.40;;;5.25;;
51451;SDS011;37521;52.020;-1.740;2023-04-15T07:15:23;10.95;;;5.72;;
51451;SDS011;37521;52.020;-1.740;2023-04-15T07:17:51;11.48;;;4.47;;
51451;SDS011;37521;52.020;-1.740;2023-04-15T07:20:20;15.57;;;5.68;;
51451;SDS011;37521;52.020;-1.740;2023-04-15T07:22:48;11.60;;;5.22;;
51451;SDS011;37521;52.020;-1.740;2023-04-15T07:25:18;12.35;;;5.72;;
51451;SDS011;37521;52.020;-1.740;2023-04-15T07:27:46;11.48;;;5.55;;
51451;SDS011;37521;52.020;-1.740;2023-04-15T07:30:14;10.85;;;5.30;;
51451;SDS011;37521;52.020;-1.740;2023-04-15T07:32:43;12.57;;;5.72;;
51451;SDS011;37521;52.020;-1.740;2023-04-15T07:35:11;10.07;;;5.05;;
51451;SDS011;37521;52.020;-1.740;2023-04-15T07:37:40;9.13;;;5.47;;
51451;SDS011;37521;52.020;-1.740;2023-04-15T07:40:09;12.48;;;5.28;;
51451;SDS011;37521;52.020;-1.740;2023-04-15T07:42:39;10.70;;;5.03;;
51451;SDS011;37521;52.020;-1.740;2023-04-15T07:45:07;10.00;;;5.20;;
51451;SDS011;37521;52.020;-1.740;2023-04-15T07:47:37;11.57;;;6.07;;
51451;SDS011;37521;52.020;-1.740;2023-04-15T07:50:06;9.95;;;4.88;;
51451;SDS011;37521;52.020;-1.740;2023-04-15T07:52:36;11.77;;;4.97;;
51451;SDS011;37521;52.020;-1.740;2023-04-15T07:55:05;10.45;;;5.05;;
51451;SDS011;37521;52.020;-1.740;2023-04-15T07:57:35;14.60;;;5.60;;
51451;SDS011;37521;52.020;-1.740;2023-04-15T08:00:05;9.55;;;5.25;;
51451;SDS011;37521;52.020;-1.740;2023-04-15T08:02:39;13.65;;;5.90;;
51451;SDS011;37521;52.020;-1.740;2023-04-15T08:05:08;14.50;;;6.15;;
51451;SDS011;37521;52.020;-1.740;2023-04-15T08:07:36;11.30;;;5.85;;
51451;SDS011;37521;52.020;-1.740;2023-04-15T08:10:05;10.73;;;5.00;;
51451;SDS011;37521;52.020;-1.740;2023-04-15T08:12:34;10.93;;;4.93;;
51451;SDS011;37521;52.020;-1.740;2023-04-15T08:15:02;12.07;;;6.38;;
51451;SDS011;37521;52.020;-1.740;2023-04-15T08:17:33;10.55;;;4.25;;
51451;SDS011;37521;52.020;-1.740;2023-04-15T08:20:02;11.75;;;5.18;;
51451;SDS011;37521;52.020;-1.740;2023-04-15T08:22:31;10.27;;;4.85;;
51451;SDS011;37521;52.020;-1.740;2023-04-15T08:24:59;12.18;;;5.50;;
51451;SDS011;37521;52.020;-1.740;2023-04-15T08:27:29;8.13;;;5.25;;
51451;SDS011;37521;52.020;-1.740;2023-04-15T08:29:57;9.52;;;5.00;;
51451;SDS011;37521;52.020;-1.740;2023-04-15T08:32:30;9.45;;;4.65;;
51451;SDS011;37521;52.020;-1.740;2023-04-15T08:34:58;10.52;;;4.70;;
51451;SDS011;37521;52.020;-1.740;2023-04-15T08:37:27;8.82;;;4.60;;
51451;SDS011;37521;52.020;-1.740;2023-04-15T08:39:55;9.98;;;4.70;;
51451;SDS011;37521;52.020;-1.740;2023-04-15T08:42:26;8.60;;;4.75;;
51451;SDS011;37521;52.020;-1.740;2023-04-15T08:44:58;7.35;;;4.53;;
51451;SDS011;37521;52.020;-1.740;2023-04-15T08:47:29;11.85;;;5.07;;
51451;SDS011;37521;52.020;-1.740;2023-04-15T08:49:58;8.43;;;4.00;;
51451;SDS011;37521;52.020;-1.740;2023-04-15T08:52:30;10.98;;;5.15;;
51451;SDS011;37521;52.020;-1.740;2023-04-15T08:54:58;8.43;;;4.28;;
51451;SDS011;37521;52.020;-1.740;2023-04-15T08:57:28;7.60;;;3.17;;
51451;SDS011;37521;52.020;-1.740;2023-04-15T08:59:57;6.80;;;2.90;;
51451;SDS011;37521;52.020;-1.740;2023-04-15T09:02:25;7.65;;;3.97;;
51451;SDS011;37521;52.020;-1.740;2023-04-15T09:04:55;8.65;;;4.03;;
51451;SDS011;37521;52.020;-1.740;2023-04-15T09:07:23;6.55;;;4.03;;
51451;SDS011;37521;52.020;-1.740;2023-04-15T09:09:52;6.93;;;3.60;;
51451;SDS011;37521;52.020;-1.740;2023-04-15T09:12:20;7.88;;;4.78;;
51451;SDS011;37521;52.020;-1.740;2023-04-15T09:14:48;9.15;;;4.38;;
51451;SDS011;37521;52.020;-1.740;2023-04-15T09:17:18;8.38;;;4.63;;
51451;SDS011;37521;52.020;-1.740;2023-04-15T09:19:47;7.32;;;3.92;;
51451;SDS011;37521;52.020;-1.740;2023-04-15T09:22:16;7.30;;;4.25;;
51451;SDS011;37521;52.020;-1.740;2023-04-15T09:24:48;7.88;;;2.78;;
51451;SDS011;37521;52.020;-1.740;2023-04-15T09:27:16;7.50;;;3.65;;
51451;SDS011;37521;52.020;-1.740;2023-04-15T09:29:48;6.43;;;3.67;;
51451;SDS011;37521;52.020;-1.740;2023-04-15T09:32:17;8.00;;;4.03;;
51451;SDS011;37521;52.020;-1.740;2023-04-15T09:34:46;5.80;;;3.75;;
51451;SDS011;37521;52.020;-1.740;2023-04-15T09:37:14;5.93;;;3.65;;
51451;SDS011;37521;52.020;-1.740;2023-04-15T09:39:57;4.65;;;3.00;;
51451;SDS011;37521;52.020;-1.740;2023-04-15T09:42:26;5.65;;;3.22;;
51451;SDS011;37521;52.020;-1.740;2023-04-15T09:44:54;4.80;;;3.17;;
51451;SDS011;37521;52.020;-1.740;2023-04-15T09:47:28;4.32;;;2.97;;
51451;SDS011;37521;52.020;-1.740;2023-04-15T09:49:57;5.47;;;2.95;;
51451;SDS011;37521;52.020;-1.740;2023-04-15T09:52:28;5.75;;;3.45;;
51451;SDS011;37521;52.020;-1.740;2023-04-15T09:54:58;7.65;;;4.20;;
51451;SDS011;37521;52.020;-1.740;2023-04-15T09:57:32;7.22;;;3.97;;
51451;SDS011;37521;52.020;-1.740;2023-04-15T10:00:02;7.50;;;3.65;;
51451;SDS011;37521;52.020;-1.740;2023-04-15T10:02:31;4.95;;;2.88;;
51451;SDS011;37521;52.020;-1.740;2023-04-15T10:05:00;5.45;;;3.17;;
51451;SDS011;37521;52.020;-1.740;2023-04-15T10:07:30;2.90;;;2.42;;
51451;SDS011;37521;52.020;-1.740;2023-04-15T10:09:59;4.93;;;3.03;;
51451;SDS011;37521;52.020;-1.740;2023-04-15T10:12:29;5.32;;;2.88;;
51451;SDS011;37521;52.020;-1.740;2023-04-15T10:15:00;6.97;;;3.90;;
51451;SDS011;37521;52.020;-1.740;2023-04-15T10:17:31;5.10;;;2.72;;
51451;SDS011;37521;52.020;-1.740;2023-04-15T10:20:01;6.03;;;3.70;;
51451;SDS011;37521;52.020;-1.740;2023-04-15T10:22:32;5.47;;;3.40;;
51451;SDS011;37521;52.020;-1.740;2023-04-15T10:25:03;4.03;;;2.75;;
51451;SDS011;37521;52.020;-1.740;2023-04-15T10:27:38;6.45;;;2.83;;
51451;SDS011;37521;52.020;-1.740;2023-04-15T10:30:08;4.60;;;2.45;;
51451;SDS011;37521;52.020;-1.740;2023-04-15T10:32:40;5.85;;;2.95;;
51451;SDS011;37521;52.020;-1.740;2023-04-15T10:35:11;3.47;;;2.88;;
51451;SDS011;37521;52.020;-1.740;2023-04-15T10:37:41;6.57;;;3.60;;
51451;SDS011;37521;52.020;-1.740;2023-04-15T10:40:22;3.70;;;2.55;;
51451;SDS011;37521;52.020;-1.740;2023-04-15T10:42:53;3.25;;;2.83;;
51451;SDS011;37521;52.020;-1.740;2023-04-15T10:45:24;3.83;;;2.35;;
51451;SDS011;37521;52.020;-1.740;2023-04-15T10:47:54;4.70;;;2.80;;
51451;SDS011;37521;52.020;-1.740;2023-04-15T10:50:24;5.30;;;2.85;;
51451;SDS011;37521;52.020;-1.740;2023-04-15T10:52:56;3.63;;;2.58;;
51451;SDS011;37521;52.020;-1.740;2023-04-15T10:55:26;2.75;;;2.35;;
51451;SDS011;37521;52.020;-1.740;2023-04-15T10:57:59;4.60;;;2.90;;
51451;SDS011;37521;52.020;-1.740;2023-04-15T11:00:29;4.63;;;3.00;;
51451;SDS011;37521;52.020;-1.740;2023-04-15T11:02:58;3.22;;;2.38;;
51451;SDS011;37521;52.020;-1.740;2023-04-15T11:08:51;3.72;;;2.25;;
51451;SDS011;37521;52.020;-1.740;2023-04-15T11:14:39;3.10;;;2.35;;
51451;SDS011;37521;52.020;-1.740;2023-04-15T11:17:08;3.03;;;2.33;;
51451;SDS011;37521;52.020;-1.740;2023-04-15T11:19:37;4.15;;;2.42;;
51451;SDS011;37521;52.020;-1.740;2023-04-15T11:22:06;3.72;;;2.15;;
51451;SDS011;37521;52.020;-1.740;2023-04-15T11:24:36;2.90;;;2.00;;
51451;SDS011;37521;52.020;-1.740;2023-04-15T11:27:19;2.17;;;1.85;;
51451;SDS011;37521;52.020;-1.740;2023-04-15T11:29:48;2.17;;;1.60;;
51451;SDS011;37521;52.020;-1.740;2023-04-15T11:32:17;3.22;;;2.10;;
51451;SDS011;37521;52.020;-1.740;2023-04-15T11:34:46;3.58;;;2.40;;
51451;SDS011;37521;52.020;-1.740;2023-04-15T11:37:14;2.33;;;2.13;;
51451;SDS011;37521;52.020;-1.740;2023-04-15T11:39:43;2.58;;;2.30;;
51451;SDS011;37521;52.020;-1.740;2023-04-15T11:42:15;3.17;;;2.58;;
51451;SDS011;37521;52.020;-1.740;2023-04-15T11:44:43;3.78;;;2.60;;
51451;SDS011;37521;52.020;-1.740;2023-04-15T11:47:21;5.05;;;2.63;;
51451;SDS011;37521;52.020;-1.740;2023-04-15T11:49:49;4.43;;;3.38;;
51451;SDS011;37521;52.020;-1.740;2023-04-15T11:52:17;3.65;;;2.35;;
51451;SDS011;37521;52.020;-1.740;2023-04-15T11:54:47;4.47;;;2.78;;
51451;SDS011;37521;52.020;-1.740;2023-04-15T11:57:15;3.92;;;2.67;;
51451;SDS011;37521;52.020;-1.740;2023-04-15T11:59:43;4.10;;;2.60;;
51451;SDS011;37521;52.020;-1.740;2023-04-15T12:02:11;2.83;;;2.03;;
51451;SDS011;37521;52.020;-1.740;2023-04-15T12:04:40;3.80;;;2.67;;
51451;SDS011;37521;52.020;-1.740;2023-04-15T12:07:09;3.28;;;1.95;;
51451;SDS011;37521;52.020;-1.740;2023-04-15T12:09:38;2.13;;;1.92;;
51451;SDS011;37521;52.020;-1.740;2023-04-15T12:12:08;2.78;;;1.70;;
51451;SDS011;37521;52.020;-1.740;2023-04-15T12:14:38;1.83;;;1.48;;
51451;SDS011;37521;52.020;-1.740;2023-04-15T12:17:09;2.00;;;1.75;;
51451;SDS011;37521;52.020;-1.740;2023-04-15T12:19:39;2.30;;;2.10;;
51451;SDS011;37521;52.020;-1.740;2023-04-15T12:22:09;1.77;;;1.40;;
51451;SDS011;37521;52.020;-1.740;2023-04-15T12:24:38;1.48;;;1.38;;
51451;SDS011;37521;52.020;-1.740;2023-04-15T12:27:11;2.83;;;1.92;;
51451;SDS011;37521;52.020;-1.740;2023-04-15T12:29:40;2.83;;;2.30;;
51451;SDS011;37521;52.020;-1.740;2023-04-15T12:32:10;3.15;;;2.38;;
51451;SDS011;37521;52.020;-1.740;2023-04-15T12:34:40;2.20;;;1.83;;
51451;SDS011;37521;52.020;-1.740;2023-04-15T12:37:10;3.72;;;1.98;;
51451;SDS011;37521;52.020;-1.740;2023-04-15T12:39:40;2.40;;;2.20;;
51451;SDS011;37521;52.020;-1.740;2023-04-15T12:42:13;2.08;;;1.88;;
51451;SDS011;37521;52.020;-1.740;2023-04-15T12:44:42;2.60;;;1.95;;
51451;SDS011;37521;52.020;-1.740;2023-04-15T12:47:11;2.30;;;2.00;;
51451;SDS011;37521;52.020;-1.740;2023-04-15T12:49:39;2.03;;;1.85;;
51451;SDS011;37521;52.020;-1.740;2023-04-15T12:52:07;2.28;;;1.92;;
51451;SDS011;37521;52.020;-1.740;2023-04-15T12:54:36;2.47;;;2.17;;
51451;SDS011;37521;52.020;-1.740;2023-04-15T12:57:04;2.35;;;2.10;;
51451;SDS011;37521;52.020;-1.740;2023-04-15T12:59:34;2.63;;;2.00;;
51451;SDS011;37521;52.020;-1.740;2023-04-15T13:02:03;2.40;;;2.03;;
51451;SDS011;37521;52.020;-1.740;2023-04-15T13:04:31;3.28;;;1.88;;
51451;SDS011;37521;52.020;-1.740;2023-04-15T13:07:00;2.42;;;2.22;;
51451;SDS011;37521;52.020;-1.740;2023-04-15T13:09:28;2.47;;;2.25;;
51451;SDS011;37521;52.020;-1.740;2023-04-15T13:11:56;2.67;;;1.92;;
51451;SDS011;37521;52.020;-1.740;2023-04-15T13:14:24;4.05;;;2.00;;
51451;SDS011;37521;52.020;-1.740;2023-04-15T13:16:54;4.03;;;2.30;;
51451;SDS011;37521;52.020;-1.740;2023-04-15T13:19:23;1.90;;;1.63;;
51451;SDS011;37521;52.020;-1.740;2023-04-15T13:21:52;2.25;;;2.00;;
51451;SDS011;37521;52.020;-1.740;2023-04-15T13:24:20;2.40;;;2.20;;
51451;SDS011;37521;52.020;-1.740;2023-04-15T13:26:48;2.55;;;2.30;;
51451;SDS011;37521;52.020;-1.740;2023-04-15T13:29:16;3.42;;;2.33;;
51451;SDS011;37521;52.020;-1.740;2023-04-15T13:31:44;2.30;;;1.75;;
51451;SDS011;37521;52.020;-1.740;2023-04-15T13:34:14;1.98;;;1.85;;
51451;SDS011;37521;52.020;-1.740;2023-04-15T13:36:42;2.30;;;2.10;;
51451;SDS011;37521;52.020;-1.740;2023-04-15T13:39:10;2.55;;;2.35;;
51451;SDS011;37521;52.020;-1.740;2023-04-15T13:41:38;2.28;;;1.80;;
51451;SDS011;37521;52.020;-1.740;2023-04-15T13:44:07;2.65;;;2.08;;
51451;SDS011;37521;52.020;-1.740;2023-04-15T13:46:35;2.40;;;2.20;;
51451;SDS011;37521;52.020;-1.740;2023-04-15T13:49:05;2.10;;;1.90;;
51451;SDS011;37521;52.020;-1.740;2023-04-15T13:51:34;2.45;;;2.17;;
51451;SDS011;37521;52.020;-1.740;2023-04-15T13:54:02;2.15;;;1.90;;
51451;SDS011;37521;52.020;-1.740;2023-04-15T13:56:31;3.30;;;2.15;;
51451;SDS011;37521;52.020;-1.740;2023-04-15T13:59:00;1.75;;;1.65;;
51451;SDS011;37521;52.020;-1.740;2023-04-15T14:01:28;2.20;;;1.92;;
51451;SDS011;37521;52.020;-1.740;2023-04-15T14:03:57;2.17;;;1.80;;
51451;SDS011;37521;52.020;-1.740;2023-04-15T14:06:25;2.25;;;1.92;;
51451;SDS011;37521;52.020;-1.740;2023-04-15T14:08:55;1.85;;;1.75;;
51451;SDS011;37521;52.020;-1.740;2023-04-15T14:11:23;2.50;;;1.65;;
51451;SDS011;37521;52.020;-1.740;2023-04-15T14:13:51;2.70;;;2.08;;
51451;SDS011;37521;52.020;-1.740;2023-04-15T14:16:19;2.00;;;1.67;;
51451;SDS011;37521;52.020;-1.740;2023-04-15T14:18:48;2.33;;;1.95;;
51451;SDS011;37521;52.020;-1.740;2023-04-15T14:21:16;2.17;;;1.95;;
51451;SDS011;37521;52.020;-1.740;2023-04-15T14:23:44;1.90;;;1.40;;
51451;SDS011;37521;52.020;-1.740;2023-04-15T14:26:14;1.92;;;1.83;;
51451;SDS011;37521;52.020;-1.740;2023-04-15T14:28:42;1.80;;;1.70;;
51451;SDS011;37521;52.020;-1.740;2023-04-15T14:31:10;1.88;;;1.77;;
51451;SDS011;37521;52.020;-1.740;2023-04-15T14:33:39;2.13;;;1.42;;
51451;SDS011;37521;52.020;-1.740;2023-04-15T14:36:08;2.13;;;1.92;;
51451;SDS011;37521;52.020;-1.740;2023-04-15T14:38:36;1.55;;;1.45;;
51451;SDS011;37521;52.020;-1.740;2023-04-15T14:41:05;1.63;;;1.45;;
51451;SDS011;37521;52.020;-1.740;2023-04-15T14:43:38;2.13;;;1.83;;
51451;SDS011;37521;52.020;-1.740;2023-04-15T14:46:06;1.40;;;1.30;;